• Join FlightAware (Why Join?)
  • Login
  • US Flag 
01:21AM EDT


 

Airport Tracker/Info


-or-


 

Live Flight TrackerFlight Track Log ✈ RPA3228 ✈ 05-Sep-2013 ✈ KDCA - KBUF

Flight Track Log - Related Links

Times and Time Zones

All times are in EDT time to prevent confusion due to time zone crossing. See the RPA3228 flight status page for this flight to view local times or setup timezone preferences in your user account.

Time Position Orientation Groundspeed Altitude Reporting Facility
EDT Latitude Longitude Course Direction KTS MPH feet Rate Location/Type
10:30AM 38.8833 -77.0667 333° Northwest 160 184 1,600  Level Potomac TRACON
10:31AM 38.9333 -77.1167 322° Northwest 223 257 4,300 3,180 Climbing Potomac TRACON
10:32AM 39.0913 -77.1623 339° North  Level FlightAware Approximate
10:33AM 39.1743 -77.2099 330° Northwest  Level FlightAware Approximate
10:33AM 38.9919 -77.2342 303° West 260 299 10,100  Level Washington Center
10:34AM 39.2614 -77.2489 337° Northwest  Level FlightAware Approximate
10:34AM 39.0136 -77.3119 290° West 308 354 11,900  Level Washington Center
10:35AM 39.3465 -77.2962 337° Northwest  Level FlightAware Approximate
10:35AM 39.0731 -77.3936 313° West 299 344 15,400  Level Washington Center
10:36AM 39.4318 -77.3490 333° Northwest  Level FlightAware Approximate
10:36AM 39.1667 -77.4039 355° North 276 318 17,100  Level Washington Center
10:37AM 39.2581 -77.4142 355° North 302 348 18,100 1,380 Climbing Washington Center
10:38AM 39.3497 -77.4247 355° North 321 369 20,000 600 Climbing Washington Center
10:40AM 39.5408 -77.4453 355° North 337 388 20,000  Level New York Center
10:41AM 39.6300 -77.4564 355° North 337 388 20,000  Level New York Center
10:42AM 39.7258 -77.4572 360° North 331 381 20,000  Level New York Center
10:43AM 39.8169 -77.4714 353° North 331 381 20,000  Level New York Center
10:44AM 39.9044 -77.5069 343° North 331 381 20,000  Level New York Center
10:45AM 39.9947 -77.5344 347° North 331 381 20,000  Level New York Center
10:46AM 40.0825 -77.5675 344° North 331 381 20,000  Level New York Center
10:47AM 40.1583 -77.5911 347° North 326 375 20,000  Level New York Center
10:48AM 40.2561 -77.6281 344° North 326 375 20,000  Level New York Center
10:49AM 40.3439 -77.6611 344° North 331 381 20,000  Level New York Center
10:50AM 40.4297 -77.6917 345° North 331 381 20,000  Level New York Center
10:51AM 40.5175 -77.7250 344° North 331 381 20,000  Level New York Center
10:52AM 40.6031 -77.7556 345° North 326 375 20,000  Level New York Center
10:53AM 40.7422 -77.8069 344° North 327 376 20,000  Level Cleveland Center
10:54AM 40.8306 -77.8417 343° North 327 376 20,000  Level Cleveland Center
10:55AM 40.9169 -77.8764 343° North 327 376 20,000  Level Cleveland Center
10:56AM 41.0053 -77.9058 346° North 327 376 20,000  Level Cleveland Center
10:57AM 41.0936 -77.9408 343° North 327 376 20,000  Level Cleveland Center
10:58AM 41.1797 -77.9733 344° North 327 376 20,000  Level Cleveland Center
10:59AM 41.2744 -78.0081 345° North 327 376 20,000  Level Cleveland Center
11:00AM 41.3586 -78.0408 344° North 327 376 20,000  Level Cleveland Center
11:01AM 41.4489 -78.0706 346° North 327 376 20,000 -180 Level Cleveland Center
11:02AM 41.5350 -78.1058 343° North 327 376 19,700 -1,020 Descending Cleveland Center
11:03AM 41.6214 -78.1386 344° North 327 376 18,000 -1,620 Descending Cleveland Center
11:04AM 41.7033 -78.1689 345° North 321 369 16,500 -1,560 Descending Cleveland Center
11:05AM 41.7853 -78.2022 343° North 314 361 14,900 -1,560 Descending Cleveland Center
11:06AM 41.8631 -78.2300 345° North 302 348 13,400 -1,200 Descending Cleveland Center
11:07AM 41.9386 -78.2606 343° North 291 335 12,600 -1,200 Descending Cleveland Center
11:08AM 42.0122 -78.2914 343° North 286 329 11,100 -780 Descending Cleveland Center
11:09AM 42.0878 -78.3197 344° North 286 329 11,100  Level Cleveland Center
11:10AM 42.1633 -78.3478 345° North 280 322 11,100  Level Cleveland Center
11:11AM 42.2389 -78.3758 345° North 280 322 11,100  Level Cleveland Center
11:12AM 42.3144 -78.4042 345° North 285 328 11,100  Level Cleveland Center
11:13AM 42.3839 -78.4328 343° North 279 321 11,100  Level Cleveland Center
11:14AM 42.4428 -78.4533 346° North 249 287 11,100  Level Cleveland Center
11:15AM 42.5036 -78.4764 344° North 232 267 11,100 -180 Level Cleveland Center
11:16AM 42.5561 -78.5031 339° North 226 260 10,800 -1,680 Descending Cleveland Center
11:17AM 42.6094 -78.5661 319° Northwest 221 254 7,800 -2,700 Descending Cleveland Center
11:18AM 42.6542 -78.6211 318° Northwest 221 254 5,500 -1,860 Descending Cleveland Center
11:19AM 42.7008 -78.6678 324° Northwest 221 254 4,100 -720 Descending Cleveland Center
11:20AM 42.7431 -78.7144 321° Northwest 215 247 4,100 -300 Level Cleveland Center
11:21AM 42.7856 -78.7669 318° Northwest 215 247 3,500 -660 Descending Cleveland Center
11:24AM 42.8833 -78.8000 346° North 163 188 2,000 -780 Descending Buffalo TRACON
11:25AM 42.9167 -78.7667 36° Northeast 112 129 1,100 -840 Descending Buffalo TRACON